createdAt,value
2023-02-17T00:00:01.764Z,96258.22
2023-02-17T00:02:29.630Z,96262.56
2023-02-17T00:04:57.711Z,96261.75
2023-02-17T00:07:31.572Z,96264.47
2023-02-17T00:09:59.560Z,96264.59
2023-02-17T00:12:27.929Z,96257.66
2023-02-17T00:14:55.840Z,96255.06
2023-02-17T00:17:23.775Z,96249.31
2023-02-17T00:19:51.610Z,96234.06
2023-02-17T00:22:19.420Z,96245.69
2023-02-17T00:24:48.662Z,96246.78
2023-02-17T00:27:16.548Z,96199.81
2023-02-17T00:29:44.494Z,96235.97
2023-02-17T00:32:12.810Z,96226.38
2023-02-17T00:34:40.812Z,96232.16
2023-02-17T00:37:08.690Z,96234.88
2023-02-17T00:39:36.602Z,96233.06
2023-02-17T00:42:05.994Z,96238.53
2023-02-17T00:44:34.068Z,96232.63
2023-02-17T00:47:01.874Z,96241.81
2023-02-17T00:49:29.746Z,96241.66
2023-02-17T00:52:01.006Z,96223.63
2023-02-17T00:54:29.525Z,96244.38
2023-02-17T00:56:57.369Z,96242.66
2023-02-17T00:59:26.602Z,96246.69
2023-02-17T01:01:54.505Z,96243.06
2023-02-17T01:04:22.372Z,96234.38
2023-02-17T01:06:50.297Z,96222.16
2023-02-17T01:09:18.172Z,96233.38
2023-02-17T01:11:46.073Z,96224.69
2023-02-17T01:14:15.504Z,96227.63
2023-02-17T01:16:47.698Z,96221.59
2023-02-17T01:19:19.677Z,96215.84
2023-02-17T01:21:47.700Z,96202.59
2023-02-17T01:24:15.579Z,96212.44
2023-02-17T01:26:43.441Z,96193.00
2023-02-17T01:29:11.298Z,96206.34
2023-02-17T01:31:41.065Z,96191.34
2023-02-17T01:34:11.983Z,96222.59
2023-02-17T01:36:39.972Z,96217.59
2023-02-17T01:39:08.051Z,96217.03
2023-02-17T01:41:36.682Z,96042.53
2023-02-17T01:44:10.363Z,96223.91
2023-02-17T01:46:39.644Z,96225.84
2023-02-17T01:49:28.053Z,96227.25
2023-02-17T01:52:01.262Z,96230.78
2023-02-17T01:54:32.591Z,96195.13
2023-02-17T01:57:03.065Z,96223.41
2023-02-17T01:59:32.061Z,96220.28
2023-02-17T02:02:04.816Z,96214.25
2023-02-17T02:04:37.486Z,96113.59
2023-02-17T02:07:11.811Z,96204.13
2023-02-17T02:09:44.007Z,96204.03
2023-02-17T02:12:23.841Z,96201.31
2023-02-17T02:14:52.862Z,96210.13
2023-02-17T02:17:32.780Z,96203.31
2023-02-17T02:20:30.425Z,96178.66
2023-02-17T02:23:37.075Z,96191.81
2023-02-17T02:26:32.735Z,96212.47
2023-02-17T02:29:26.203Z,96196.63
2023-02-17T02:32:08.658Z,96153.09
2023-02-17T02:34:44.546Z,96196.38
2023-02-17T02:37:18.641Z,96189.09
2023-02-17T02:39:50.168Z,96196.63
2023-02-17T02:42:22.056Z,96205.28
2023-02-17T02:44:50.670Z,96202.84
2023-02-17T02:47:43.003Z,96213.09
2023-02-17T02:50:15.171Z,96129.38
2023-02-17T02:52:53.083Z,96141.88
2023-02-17T02:55:26.637Z,96209.88
2023-02-17T02:58:02.216Z,96137.25
2023-02-17T03:00:38.050Z,96205.16
2023-02-17T03:03:14.821Z,96210.16
2023-02-17T03:05:53.764Z,96217.38
2023-02-17T03:08:28.508Z,96135.28
2023-02-17T03:10:56.796Z,96210.41
2023-02-17T03:13:24.639Z,96211.16
2023-02-17T03:15:52.556Z,96220.16
2023-02-17T03:18:20.648Z,96201.00
2023-02-17T03:20:54.144Z,96204.91
2023-02-17T03:23:22.033Z,96208.72
2023-02-17T03:25:50.257Z,96210.97
2023-02-17T03:28:18.610Z,96205.72
2023-02-17T03:30:46.529Z,96204.09
2023-02-17T03:33:14.453Z,96200.47
2023-02-17T03:35:42.278Z,96174.47
2023-02-17T03:38:11.469Z,96211.38
2023-02-17T03:40:39.351Z,96214.91
2023-02-17T03:43:07.233Z,96210.75
2023-02-17T03:45:37.430Z,96167.09
2023-02-17T03:48:05.839Z,96213.19
2023-02-17T03:50:33.811Z,96204.81
2023-02-17T03:53:01.680Z,96191.44
2023-02-17T03:55:30.880Z,96196.66
2023-02-17T03:57:58.734Z,96189.81
2023-02-17T04:00:26.576Z,96194.13
2023-02-17T04:02:54.395Z,96190.94
2023-02-17T04:05:22.325Z,96217.97
2023-02-17T04:07:50.343Z,96204.25
2023-02-17T04:10:18.562Z,96220.47
2023-02-17T04:12:47.843Z,96186.78
2023-02-17T04:15:15.728Z,96199.72
2023-02-17T04:17:43.584Z,96149.53
2023-02-17T04:20:12.612Z,96195.72
2023-02-17T04:22:40.486Z,96206.88
2023-02-17T04:25:08.519Z,96214.09
2023-02-17T04:27:36.379Z,96212.59
2023-02-17T04:30:07.152Z,96198.38
2023-02-17T04:32:35.063Z,96191.63
2023-02-17T04:35:03.091Z,96203.28
2023-02-17T04:37:30.912Z,96187.72
2023-02-17T04:39:58.801Z,96205.72
2023-02-17T04:42:26.803Z,96194.22
2023-02-17T04:44:54.665Z,96206.44
2023-02-17T04:47:24.020Z,96198.22
2023-02-17T04:49:51.934Z,96203.91
2023-02-17T04:52:19.770Z,96195.22
2023-02-17T04:54:47.594Z,96191.69
2023-02-17T04:57:15.431Z,96201.31
2023-02-17T04:59:43.358Z,96206.66
2023-02-17T05:02:11.388Z,96216.22
2023-02-17T05:04:40.662Z,96186.81
2023-02-17T05:07:08.501Z,96208.19
2023-02-17T05:09:36.464Z,96224.22
2023-02-17T05:12:06.375Z,96226.47
2023-02-17T05:14:34.280Z,96224.78
2023-02-17T05:17:02.166Z,96235.38
2023-02-17T05:19:30.049Z,96245.81
2023-02-17T05:21:59.270Z,96253.19
2023-02-17T05:24:27.188Z,96238.06
2023-02-17T05:26:55.123Z,96233.19
2023-02-17T05:29:23.356Z,96238.56
2023-02-17T05:31:51.336Z,96242.59
2023-02-17T05:34:19.212Z,96213.50
2023-02-17T05:36:47.120Z,96241.47
2023-02-17T05:39:16.386Z,96259.13
2023-02-17T05:41:44.219Z,96251.50
2023-02-17T05:44:14.656Z,96262.19
2023-02-17T05:46:42.578Z,96251.16
2023-02-17T05:49:10.458Z,96264.22
2023-02-17T05:51:38.657Z,96238.06
2023-02-17T05:54:06.698Z,96258.13
2023-02-17T05:56:35.992Z,96262.84
2023-02-17T05:59:03.945Z,96259.44
2023-02-17T06:01:31.977Z,96261.47
2023-02-17T06:03:59.866Z,96256.75
2023-02-17T06:06:27.871Z,96270.50
2023-02-17T06:08:55.814Z,96266.72
2023-02-17T06:11:23.680Z,96262.13
2023-02-17T06:13:53.162Z,96275.31
2023-02-17T06:16:21.171Z,96267.31
2023-02-17T06:18:49.067Z,96280.38
2023-02-17T06:21:17.033Z,96268.72
2023-02-17T06:23:45.042Z,96271.41
2023-02-17T06:26:14.145Z,96275.69
2023-02-17T06:28:42.034Z,96280.47
2023-02-17T06:31:11.398Z,96290.09
2023-02-17T06:33:39.289Z,96297.13
2023-02-17T06:36:08.467Z,96283.53
2023-02-17T06:38:36.722Z,96273.09
2023-02-17T06:41:04.703Z,96272.00
2023-02-17T06:43:32.576Z,96285.25
2023-02-17T06:46:00.505Z,96274.84
2023-02-17T06:48:33.073Z,96291.25
2023-02-17T06:51:01.016Z,96286.16
2023-02-17T06:53:29.183Z,96285.22
2023-02-17T06:55:57.168Z,96299.66
2023-02-17T06:58:25.034Z,96288.53
2023-02-17T07:00:52.850Z,96287.56
2023-02-17T07:03:20.768Z,96270.22
2023-02-17T07:05:50.037Z,96294.72
2023-02-17T07:08:17.910Z,96292.63
2023-02-17T07:10:45.812Z,96294.94
2023-02-17T07:13:13.690Z,96291.09
2023-02-17T07:15:41.722Z,96300.28
2023-02-17T07:18:09.569Z,96240.84
2023-02-17T07:20:39.237Z,96300.56
2023-02-17T07:23:08.636Z,96302.25
2023-02-17T07:25:36.508Z,96303.56
2023-02-17T07:28:04.440Z,96304.31
2023-02-17T07:30:32.506Z,96302.34
2023-02-17T07:33:00.397Z,96286.44
2023-02-17T07:35:28.267Z,96302.66
2023-02-17T07:37:58.373Z,96244.91
2023-02-17T07:40:28.815Z,96314.69
2023-02-17T07:42:58.137Z,96305.28
2023-02-17T07:45:25.999Z,96312.06
2023-02-17T07:47:53.832Z,96300.09
2023-02-17T07:50:21.703Z,96264.81
2023-02-17T07:52:49.622Z,96298.41
2023-02-17T07:55:17.518Z,96290.56
2023-02-17T07:57:46.741Z,96300.75
2023-02-17T08:00:16.021Z,96300.75
2023-02-17T08:02:43.998Z,96298.66
2023-02-17T08:05:12.015Z,96305.56
2023-02-17T08:07:39.849Z,96296.41
2023-02-17T08:10:25.835Z,96296.59
2023-02-17T08:13:12.574Z,96294.50
2023-02-17T08:15:41.362Z,96304.44
2023-02-17T08:18:09.322Z,96280.31
2023-02-17T08:20:37.317Z,96296.00
2023-02-17T08:23:05.270Z,96292.41
2023-02-17T08:25:34.689Z,96244.00
2023-02-17T08:28:06.589Z,96294.22
2023-02-17T08:30:38.442Z,96286.53
2023-02-17T08:33:06.601Z,96288.66
2023-02-17T08:35:34.570Z,96282.47
2023-02-17T08:38:02.463Z,96277.22
2023-02-17T08:40:30.482Z,96281.50
2023-02-17T08:42:58.386Z,96271.63
2023-02-17T08:45:27.651Z,96279.88
2023-02-17T08:47:55.675Z,96280.94
2023-02-17T08:50:24.099Z,96275.28
2023-02-17T08:52:52.143Z,96277.56
2023-02-17T08:55:20.378Z,96284.47
2023-02-17T08:57:48.661Z,96273.28
2023-02-17T09:00:18.897Z,96287.13
2023-02-17T09:02:48.183Z,96232.03
2023-02-17T09:05:16.483Z,96278.09
2023-02-17T09:07:44.364Z,96265.38
2023-02-17T09:10:15.558Z,96255.22
2023-02-17T09:12:43.470Z,96263.94
2023-02-17T09:15:11.642Z,96270.22
2023-02-17T09:17:41.391Z,96265.84
2023-02-17T09:20:23.862Z,96264.09
2023-02-17T09:22:52.775Z,96254.69
2023-02-17T09:25:20.955Z,96270.53
2023-02-17T09:27:49.163Z,96279.13
2023-02-17T09:30:17.316Z,96268.38
2023-02-17T09:32:46.179Z,96261.13
2023-02-17T09:35:17.142Z,96260.78
2023-02-17T09:37:45.358Z,96237.34
2023-02-17T09:40:18.952Z,96252.28
2023-02-17T09:42:48.493Z,96245.59
2023-02-17T09:45:22.063Z,96248.56
2023-02-17T09:47:53.245Z,96246.97
2023-02-17T09:50:26.400Z,96229.69
2023-02-17T09:53:00.356Z,96232.34
2023-02-17T09:55:33.123Z,96241.34
2023-02-17T09:58:05.969Z,96232.03
2023-02-17T10:00:36.580Z,96197.97
2023-02-17T10:03:14.773Z,96243.06
2023-02-17T10:05:50.580Z,96236.38
2023-02-17T10:08:22.739Z,96228.78
2023-02-17T10:10:55.839Z,96189.53
2023-02-17T10:13:27.728Z,96206.75
2023-02-17T10:16:01.132Z,96225.34
2023-02-17T10:18:35.944Z,96211.03
2023-02-17T10:21:08.480Z,96204.75
2023-02-17T10:23:36.536Z,96200.69
2023-02-17T10:26:17.627Z,96188.13
2023-02-17T10:28:52.407Z,96202.84
2023-02-17T10:31:39.239Z,96201.63
2023-02-17T10:34:15.995Z,96146.31
2023-02-17T10:36:59.389Z,96198.94
2023-02-17T10:39:48.415Z,96190.88
2023-02-17T10:42:22.661Z,96182.03
2023-02-17T10:44:54.531Z,96159.03
2023-02-17T10:47:23.585Z,96187.94
2023-02-17T10:49:54.066Z,96182.41
2023-02-17T10:52:25.431Z,96127.81
2023-02-17T10:54:59.928Z,96147.56
2023-02-17T10:57:32.316Z,96167.97
2023-02-17T11:00:00.366Z,96182.13
2023-02-17T11:02:37.800Z,96155.63
2023-02-17T11:05:06.900Z,96122.03
2023-02-17T11:07:38.195Z,96136.91
2023-02-17T11:10:21.917Z,96170.97
2023-02-17T11:12:51.903Z,96162.41
2023-02-17T11:15:23.091Z,96166.84
2023-02-17T11:17:54.623Z,96166.16
2023-02-17T11:20:36.206Z,96162.28
2023-02-17T11:23:23.162Z,96152.13
2023-02-17T11:26:00.717Z,96154.25
2023-02-17T11:28:29.551Z,96122.97
2023-02-17T11:31:07.311Z,96141.34
2023-02-17T11:33:37.480Z,96154.59
2023-02-17T11:36:08.182Z,96116.06
2023-02-17T11:38:45.572Z,96147.22
2023-02-17T11:41:13.592Z,96068.91
2023-02-17T11:43:53.723Z,96139.56
2023-02-17T11:46:35.041Z,96133.03
2023-02-17T11:49:28.313Z,96139.81
2023-02-17T11:52:12.410Z,96126.28
2023-02-17T11:54:54.365Z,96132.25
2023-02-17T11:57:38.531Z,96125.69
2023-02-17T12:00:17.785Z,96108.44
2023-02-17T12:03:24.508Z,96129.34
2023-02-17T12:06:02.717Z,96125.00
2023-02-17T12:08:39.394Z,96078.13
2023-02-17T12:11:21.098Z,96114.81
2023-02-17T12:14:02.932Z,96113.19
2023-02-17T12:16:44.212Z,96108.25
2023-02-17T12:19:29.216Z,96097.75
2023-02-17T12:22:07.337Z,96082.34
2023-02-17T12:24:50.340Z,96095.13
2023-02-17T12:27:30.443Z,96055.59
2023-02-17T12:30:15.870Z,96082.22
2023-02-17T12:32:59.680Z,96083.03
2023-02-17T12:35:34.519Z,96072.56
2023-02-17T12:38:05.335Z,96073.56
2023-02-17T12:40:38.824Z,96065.19
2023-02-17T12:43:21.963Z,96073.31
2023-02-17T12:45:52.261Z,95996.03
2023-02-17T12:48:27.198Z,96072.75
2023-02-17T12:51:00.578Z,96071.97
2023-02-17T12:53:41.800Z,96071.97
2023-02-17T12:56:38.904Z,96050.78
2023-02-17T12:59:15.972Z,96061.22
2023-02-17T13:01:55.252Z,96050.84
2023-02-17T13:04:26.453Z,96065.47
2023-02-17T13:07:01.538Z,96061.81
2023-02-17T13:09:35.205Z,96060.22
2023-02-17T13:12:18.635Z,96031.38
2023-02-17T13:14:49.556Z,96056.78
2023-02-17T13:17:29.205Z,96057.00
2023-02-17T13:20:24.287Z,96053.03
2023-02-17T13:23:03.524Z,96052.81
2023-02-17T13:25:35.654Z,96055.06
2023-02-17T13:28:34.569Z,96056.50
2023-02-17T13:31:18.905Z,96023.66
2023-02-17T13:33:50.532Z,96040.69
2023-02-17T13:36:39.199Z,96049.28
2023-02-17T13:39:38.637Z,96041.91
2023-02-17T13:42:22.510Z,96034.66
2023-02-17T13:44:52.962Z,96009.28
2023-02-17T13:47:30.066Z,96013.84
2023-02-17T13:49:59.253Z,96042.00
2023-02-17T13:52:29.706Z,96037.38
2023-02-17T13:55:01.209Z,96034.94
2023-02-17T13:57:32.138Z,96030.94
2023-02-17T14:00:09.227Z,96044.41
2023-02-17T14:02:42.194Z,96049.81
2023-02-17T14:05:20.138Z,96031.16
2023-02-17T14:07:51.865Z,96028.28
2023-02-17T14:10:24.837Z,96040.69
2023-02-17T14:12:53.473Z,96042.09
2023-02-17T14:15:23.926Z,96031.91
2023-02-17T14:17:52.771Z,96014.28
2023-02-17T14:20:32.638Z,96026.84
2023-02-17T14:23:04.400Z,96040.41
2023-02-17T14:25:36.207Z,96039.56
2023-02-17T14:28:04.609Z,96046.03
2023-02-17T14:30:36.498Z,96000.06
2023-02-17T14:33:09.736Z,96050.31
2023-02-17T14:35:39.429Z,96050.78
2023-02-17T14:38:20.898Z,96045.00
2023-02-17T14:40:50.442Z,96035.28
2023-02-17T14:43:18.367Z,96051.44
2023-02-17T14:45:46.649Z,96043.97
2023-02-17T14:48:14.572Z,96037.63
2023-02-17T14:50:44.276Z,96039.91
2023-02-17T14:53:15.261Z,96044.75
2023-02-17T14:55:47.797Z,96047.34
2023-02-17T14:58:20.732Z,96018.31
2023-02-17T15:00:49.474Z,96047.50
2023-02-17T15:03:17.763Z,96034.34
2023-02-17T15:05:46.372Z,96045.06
2023-02-17T15:08:17.271Z,96044.13
2023-02-17T15:10:45.611Z,96048.50
2023-02-17T15:13:15.958Z,96051.78
2023-02-17T15:15:47.634Z,96044.03
2023-02-17T15:18:17.682Z,96040.97
2023-02-17T15:20:47.987Z,96047.84
2023-02-17T15:23:17.940Z,96052.00
2023-02-17T15:25:46.704Z,96057.97
2023-02-17T15:28:15.339Z,96060.41
2023-02-17T15:30:47.552Z,96062.97
2023-02-17T15:33:15.597Z,96055.84
2023-02-17T15:35:43.782Z,96063.22
2023-02-17T15:38:13.238Z,96054.91
2023-02-17T15:40:42.396Z,96073.38
2023-02-17T15:43:14.470Z,96073.22
2023-02-17T15:45:42.505Z,96063.56
2023-02-17T15:48:19.614Z,96075.69
2023-02-17T15:50:47.477Z,96063.34
2023-02-17T15:53:15.388Z,96071.81
2023-02-17T15:55:43.559Z,96075.34
2023-02-17T15:58:16.686Z,96073.03
2023-02-17T16:00:47.113Z,96086.56
2023-02-17T16:03:16.649Z,96090.72
2023-02-17T16:05:44.868Z,96097.25
2023-02-17T16:08:13.701Z,96091.66
2023-02-17T16:10:45.614Z,96098.72
2023-02-17T16:13:16.803Z,96100.75
2023-02-17T16:15:45.375Z,96105.09
2023-02-17T16:18:22.218Z,96102.84
2023-02-17T16:20:50.957Z,96034.38
2023-02-17T16:23:19.302Z,96106.53
2023-02-17T16:25:47.989Z,96111.00
2023-02-17T16:28:18.068Z,96104.66
2023-02-17T16:30:46.470Z,96108.47
2023-02-17T16:33:14.844Z,96021.97
2023-02-17T16:35:44.500Z,96108.72
2023-02-17T16:38:16.332Z,96114.59
2023-02-17T16:40:48.290Z,96121.09
2023-02-17T16:43:24.335Z,96119.06
2023-02-17T16:45:58.663Z,96124.16
2023-02-17T16:48:28.616Z,96117.44
2023-02-17T16:50:58.198Z,96122.22
2023-02-17T16:53:26.196Z,96127.31
2023-02-17T16:55:55.211Z,96130.00
2023-02-17T16:58:25.039Z,96126.16
2023-02-17T17:00:54.653Z,96125.03
2023-02-17T17:03:23.484Z,95978.03
2023-02-17T17:05:53.314Z,96130.22
2023-02-17T17:08:22.791Z,96140.06
2023-02-17T17:10:50.843Z,96136.69
2023-02-17T17:13:19.622Z,96138.38
2023-02-17T17:15:47.731Z,96138.03
2023-02-17T17:18:21.437Z,96131.00
2023-02-17T17:20:49.613Z,96140.84
2023-02-17T17:23:18.854Z,96085.63
2023-02-17T17:25:48.841Z,96137.88
2023-02-17T17:28:18.875Z,96137.06
2023-02-17T17:30:47.742Z,96120.84
2023-02-17T17:33:16.279Z,96113.19
2023-02-17T17:35:44.348Z,96128.44
2023-02-17T17:38:15.487Z,96119.81
2023-02-17T17:40:49.319Z,96129.72
2023-02-17T17:43:20.424Z,96117.00
2023-02-17T17:45:48.544Z,96088.78
2023-02-17T17:48:17.557Z,96125.03
2023-02-17T17:50:45.836Z,96125.34
2023-02-17T17:53:13.797Z,96117.69
2023-02-17T17:55:43.378Z,96118.91
2023-02-17T17:58:11.294Z,96120.97
2023-02-17T18:00:40.654Z,96053.56
2023-02-17T18:03:08.495Z,96125.97
2023-02-17T18:05:37.415Z,96109.78
2023-02-17T18:08:07.013Z,96125.84
2023-02-17T18:10:37.797Z,96119.44
2023-02-17T18:13:06.486Z,96113.53
2023-02-17T18:15:34.470Z,96110.75
2023-02-17T18:18:04.173Z,96117.41
2023-02-17T18:20:32.049Z,96107.44
2023-02-17T18:23:02.102Z,96111.06
2023-02-17T18:25:30.563Z,96111.97
2023-02-17T18:27:58.385Z,96114.78
2023-02-17T18:30:27.337Z,96079.75
2023-02-17T18:32:55.836Z,96098.59
2023-02-17T18:35:25.128Z,96083.88
2023-02-17T18:37:53.096Z,96068.69
2023-02-17T18:40:21.951Z,96110.09
2023-02-17T18:42:52.930Z,96112.56
2023-02-17T18:45:20.886Z,96116.00
2023-02-17T18:47:49.103Z,96062.56
2023-02-17T18:50:17.500Z,96125.75
2023-02-17T18:52:47.225Z,96113.81
2023-02-17T18:55:15.208Z,96114.72
2023-02-17T18:57:44.865Z,96115.22
2023-02-17T19:00:16.706Z,96120.09
2023-02-17T19:02:44.920Z,96122.28
2023-02-17T19:05:13.575Z,96129.78
2023-02-17T19:07:41.462Z,96119.88
2023-02-17T19:10:12.348Z,96066.47
2023-02-17T19:12:40.445Z,96145.78
2023-02-17T19:15:09.534Z,96139.59
2023-02-17T19:17:37.517Z,96137.53
2023-02-17T19:20:05.770Z,96146.25
2023-02-17T19:22:36.457Z,96123.31
2023-02-17T19:25:05.501Z,96153.53
2023-02-17T19:27:34.911Z,96154.34
2023-02-17T19:30:02.840Z,96136.66
2023-02-17T19:32:30.753Z,96162.63
2023-02-17T19:34:58.714Z,96169.22
2023-02-17T19:37:26.737Z,96162.91
2023-02-17T19:39:55.078Z,96162.72
2023-02-17T19:42:22.929Z,96170.91
2023-02-17T19:44:52.169Z,96176.22
2023-02-17T19:47:20.035Z,96165.28
2023-02-17T19:49:47.868Z,96158.75
2023-02-17T19:52:15.983Z,96158.59
2023-02-17T19:54:44.004Z,96164.75
2023-02-17T19:57:17.291Z,96145.81
2023-02-17T19:59:45.514Z,96162.59
2023-02-17T20:02:18.166Z,96142.72
2023-02-17T20:04:46.461Z,96075.69
2023-02-17T20:07:14.663Z,96146.91
2023-02-17T20:09:42.527Z,96152.03
2023-02-17T20:12:11.114Z,96130.88
2023-02-17T20:14:39.008Z,96142.09
2023-02-17T20:17:07.008Z,96141.03
2023-02-17T20:19:39.059Z,96097.69
2023-02-17T20:22:07.538Z,96156.22
2023-02-17T20:24:38.147Z,96106.56
2023-02-17T20:27:06.074Z,96149.41
2023-02-17T20:29:36.282Z,96143.94
2023-02-17T20:32:04.879Z,96099.28
2023-02-17T20:34:35.481Z,96107.84
2023-02-17T20:37:05.117Z,96137.66
2023-02-17T20:39:37.604Z,96139.41
2023-02-17T20:42:05.916Z,96155.03
2023-02-17T20:44:35.894Z,96156.44
2023-02-17T20:47:04.409Z,96165.03
2023-02-17T20:49:32.317Z,96164.59
2023-02-17T20:52:00.215Z,96154.25
2023-02-17T20:54:29.422Z,96084.66
2023-02-17T20:57:01.287Z,96153.41
2023-02-17T20:59:29.486Z,96159.59
2023-02-17T21:01:57.409Z,96159.50
2023-02-17T21:04:25.266Z,96172.19
2023-02-17T21:06:53.109Z,96169.91
2023-02-17T21:09:20.983Z,96163.28
2023-02-17T21:11:50.376Z,96078.00
2023-02-17T21:14:18.243Z,96166.41
2023-02-17T21:16:46.471Z,96162.41
2023-02-17T21:19:15.710Z,96163.69
2023-02-17T21:21:43.567Z,96162.53
2023-02-17T21:24:11.397Z,96141.72
2023-02-17T21:26:39.490Z,96103.34
2023-02-17T21:29:08.789Z,96155.09
2023-02-17T21:31:37.107Z,96147.16
2023-02-17T21:34:08.890Z,96150.13
2023-02-17T21:36:36.802Z,96148.75
2023-02-17T21:39:05.189Z,96148.84
2023-02-17T21:41:33.419Z,96151.22
2023-02-17T21:44:19.185Z,96108.31
2023-02-17T21:46:48.427Z,96146.38
2023-02-17T21:49:16.435Z,96138.63
2023-02-17T21:51:44.640Z,96146.19
2023-02-17T21:54:12.862Z,96141.38
2023-02-17T21:56:40.758Z,96141.66
2023-02-17T21:59:09.604Z,96148.03
2023-02-17T22:01:39.091Z,96141.81
2023-02-17T22:04:08.408Z,96110.09
2023-02-17T22:06:40.613Z,96148.22
2023-02-17T22:09:10.824Z,96071.56
2023-02-17T22:11:41.807Z,96143.56
2023-02-17T22:14:13.761Z,96137.38
2023-02-17T22:16:42.101Z,96117.13
2023-02-17T22:19:15.685Z,96139.81
2023-02-17T22:21:44.379Z,96145.16
2023-02-17T22:24:13.609Z,96123.56
2023-02-17T22:26:42.013Z,96138.22
2023-02-17T22:29:11.050Z,96130.19
2023-02-17T22:31:38.973Z,96144.88
2023-02-17T22:34:10.111Z,96136.38
2023-02-17T22:36:39.826Z,96126.75
2023-02-17T22:39:09.002Z,96140.44
2023-02-17T22:41:38.821Z,96129.22
2023-02-17T22:44:07.039Z,96131.06
2023-02-17T22:46:34.928Z,96106.84
2023-02-17T22:49:03.110Z,96125.53
2023-02-17T22:51:32.762Z,96124.53
2023-02-17T22:54:03.105Z,96124.53
2023-02-17T22:56:31.371Z,96120.34
2023-02-17T22:59:01.005Z,96124.66
2023-02-17T23:01:32.445Z,96134.75
2023-02-17T23:04:00.298Z,96123.56
2023-02-17T23:06:30.585Z,96131.06
2023-02-17T23:08:59.053Z,96130.00
2023-02-17T23:11:48.522Z,96111.63
2023-02-17T23:14:20.344Z,96093.78
2023-02-17T23:16:48.341Z,96114.53
2023-02-17T23:19:18.657Z,96127.63
2023-02-17T23:21:48.083Z,96115.63
2023-02-17T23:24:16.736Z,96109.50
2023-02-17T23:26:47.582Z,96120.44
2023-02-17T23:29:16.452Z,96109.25
2023-02-17T23:31:44.976Z,96124.44
2023-02-17T23:34:13.894Z,96068.44
2023-02-17T23:36:42.573Z,96062.34
2023-02-17T23:39:11.004Z,96040.47
2023-02-17T23:41:39.511Z,96118.88
2023-02-17T23:44:10.639Z,96095.38
2023-02-17T23:46:39.485Z,96104.44
2023-02-17T23:49:07.488Z,96106.88
2023-02-17T23:51:35.510Z,96099.63
2023-02-17T23:54:03.374Z,96091.09
2023-02-17T23:56:33.167Z,96071.09
2023-02-17T23:59:01.439Z,96094.00
